createdAt,value
2019-04-23T00:01:07.513Z,3.80
2019-04-23T00:04:10.139Z,3.30
2019-04-23T00:07:36.725Z,3.97
2019-04-23T00:10:43.116Z,5.03
2019-04-23T00:13:58.139Z,4.57
2019-04-23T00:17:15.283Z,3.00
2019-04-23T00:20:25.914Z,4.40
2019-04-23T00:23:53.067Z,3.20
2019-04-23T00:27:10.449Z,3.40
2019-04-23T00:30:09.963Z,2.70
2019-04-23T00:33:30.159Z,4.50
2019-04-23T00:36:45.490Z,3.80
2019-04-23T00:39:56.556Z,4.43
2019-04-23T00:46:36.818Z,2.50
2019-04-23T00:49:53.240Z,3.80
2019-04-23T00:53:04.081Z,3.47
2019-04-23T00:59:39.477Z,2.43
2019-04-23T01:02:53.351Z,3.80
2019-04-23T01:06:06.490Z,4.27
2019-04-23T01:09:25.771Z,3.03
2019-04-23T01:12:46.664Z,3.80
2019-04-23T01:15:57.747Z,3.00
2019-04-23T01:22:31.700Z,3.33
2019-04-23T01:25:56.518Z,5.00
2019-04-23T01:29:34.069Z,2.63
2019-04-23T01:32:38.185Z,2.63
2019-04-23T01:36:11.027Z,2.30
2019-04-23T01:39:14.400Z,3.17
2019-04-23T01:42:35.682Z,3.27
2019-04-23T01:45:35.669Z,3.40
2019-04-23T01:48:58.328Z,2.80
2019-04-23T01:52:14.527Z,3.17
2019-04-23T01:55:33.032Z,5.07
2019-04-23T02:02:06.574Z,2.93
2019-04-23T02:05:24.313Z,3.00
2019-04-23T02:08:36.275Z,4.10
2019-04-23T02:11:55.152Z,3.83
2019-04-23T02:15:12.222Z,4.17
2019-04-23T02:18:23.112Z,4.37
2019-04-23T02:21:39.885Z,3.93
2019-04-23T02:24:55.818Z,6.33
2019-04-23T02:28:25.515Z,3.67
2019-04-23T02:35:02.364Z,4.50
2019-04-23T02:38:18.504Z,5.07
2019-04-23T02:41:16.299Z,4.53
2019-04-23T02:44:34.241Z,6.50
2019-04-23T02:47:52.695Z,5.67
2019-04-23T02:51:03.993Z,3.80
2019-04-23T02:57:35.574Z,4.37
2019-04-23T03:01:15.127Z,3.90
2019-04-23T03:10:40.405Z,3.30
2019-04-23T03:17:11.158Z,3.37
2019-04-23T03:27:28.784Z,3.97
2019-04-23T03:40:40.490Z,5.60
2019-04-23T03:47:11.474Z,6.43
2019-04-23T03:53:54.244Z,5.60
2019-04-23T03:57:06.072Z,4.47
2019-04-23T04:00:24.986Z,4.97
2019-04-23T04:03:51.709Z,4.77
2019-04-23T04:07:05.452Z,8.00
2019-04-23T04:10:05.410Z,4.87
2019-04-23T04:13:15.922Z,4.93
2019-04-23T04:16:30.887Z,7.13
2019-04-23T04:23:10.683Z,6.40
2019-04-23T04:29:39.482Z,5.93
2019-04-23T04:33:02.303Z,4.93
2019-04-23T04:39:22.569Z,5.00
2019-04-23T04:42:55.278Z,5.70
2019-04-23T04:46:04.808Z,6.07
2019-04-23T04:49:07.901Z,4.70
2019-04-23T04:52:38.380Z,4.70
2019-04-23T04:55:47.486Z,4.87
2019-04-23T04:58:53.309Z,6.07
2019-04-23T05:02:20.901Z,4.03
2019-04-23T05:08:52.895Z,6.07
2019-04-23T05:17:02.921Z,7.30
2019-04-23T05:20:21.196Z,4.53
2019-04-23T05:23:51.141Z,4.87
2019-04-23T05:26:53.430Z,4.60
2019-04-23T05:30:15.418Z,6.27
2019-04-23T05:33:29.022Z,5.30
2019-04-23T05:36:52.093Z,4.97
2019-04-23T05:39:56.691Z,5.20
2019-04-23T05:43:13.854Z,5.73
2019-04-23T05:49:47.598Z,5.13
2019-04-23T05:53:00.632Z,6.77
2019-04-23T05:56:14.388Z,7.17
2019-04-23T05:59:30.109Z,5.67
2019-04-23T06:02:48.572Z,7.77
2019-04-23T06:06:10.747Z,5.87
2019-04-23T06:09:18.963Z,5.73
2019-04-23T06:12:39.951Z,8.10
2019-04-23T06:15:55.864Z,6.37
2019-04-23T06:25:51.043Z,7.53
2019-04-23T06:29:00.433Z,5.50
2019-04-23T06:32:06.509Z,6.40
2019-04-23T06:35:45.471Z,5.03
2019-04-23T06:38:53.791Z,7.53
2019-04-23T06:45:14.817Z,4.87
2019-04-23T06:48:33.801Z,6.60
2019-04-23T06:51:53.348Z,9.00
2019-04-23T06:55:03.010Z,9.13
2019-04-23T06:58:25.965Z,7.57
2019-04-23T07:01:36.055Z,5.77
2019-04-23T07:04:56.935Z,9.17
2019-04-23T07:08:13.603Z,5.70
2019-04-23T07:11:27.073Z,8.73
2019-04-23T07:14:44.054Z,7.23
2019-04-23T07:17:55.507Z,8.00
2019-04-23T07:21:16.641Z,8.27
2019-04-23T07:24:21.531Z,6.47
2019-04-23T07:27:33.234Z,8.20
2019-04-23T07:31:02.445Z,7.07
2019-04-23T07:34:26.440Z,6.37
2019-04-23T07:37:32.084Z,5.73
2019-04-23T07:41:07.726Z,7.80
2019-04-23T07:44:14.260Z,8.03
2019-04-23T07:47:41.740Z,6.33
2019-04-23T07:51:09.401Z,8.93
2019-04-23T07:54:25.716Z,8.43
2019-04-23T07:57:34.043Z,7.10
2019-04-23T08:00:54.019Z,7.17
2019-04-23T08:04:09.219Z,7.00
2019-04-23T08:07:20.036Z,5.40
2019-04-23T08:10:46.583Z,9.73
2019-04-23T08:13:58.690Z,6.97
2019-04-23T08:17:13.942Z,7.27
2019-04-23T08:20:30.781Z,7.47
2019-04-23T08:27:22.480Z,7.97
2019-04-23T08:30:42.378Z,6.00
2019-04-23T08:34:05.641Z,7.60
2019-04-23T08:37:18.036Z,6.50
2019-04-23T08:40:38.192Z,7.70
2019-04-23T08:44:05.544Z,6.80
2019-04-23T08:50:29.647Z,7.53
2019-04-23T09:00:10.771Z,6.90
2019-04-23T09:06:47.269Z,7.47
2019-04-23T09:13:40.183Z,8.67
2019-04-23T09:16:36.188Z,8.23
2019-04-23T09:22:55.064Z,5.57
2019-04-23T09:29:41.145Z,8.93
2019-04-23T09:32:55.554Z,6.67
2019-04-23T09:36:27.462Z,9.73
2019-04-23T09:39:49.753Z,7.70
2019-04-23T09:50:16.015Z,7.90
2019-04-23T09:57:02.371Z,6.80
2019-04-23T10:00:10.608Z,9.30
2019-04-23T10:03:14.665Z,6.97
2019-04-23T10:06:18.311Z,6.43
2019-04-23T10:09:27.385Z,6.53
2019-04-23T10:12:42.074Z,7.00
2019-04-23T10:15:55.963Z,8.47
2019-04-23T10:19:10.072Z,7.80
2019-04-23T10:22:25.137Z,6.30
2019-04-23T10:25:40.311Z,6.73
2019-04-23T10:28:58.191Z,6.43
2019-04-23T10:32:13.484Z,7.93
2019-04-23T10:35:38.700Z,7.97
2019-04-23T10:38:54.308Z,6.00
2019-04-23T10:42:01.203Z,8.47
2019-04-23T10:45:51.333Z,5.93
2019-04-23T10:52:48.511Z,7.27
2019-04-23T10:56:22.088Z,8.83
2019-04-23T10:59:37.289Z,7.50
2019-04-23T11:02:48.865Z,8.23
2019-04-23T11:06:24.506Z,7.40
2019-04-23T11:19:25.754Z,13.57
2019-04-23T11:26:06.630Z,9.97
2019-04-23T11:29:16.824Z,8.23
2019-04-23T11:32:41.170Z,9.43
2019-04-23T11:38:02.799Z,8.97
2019-04-23T11:42:11.542Z,7.50
2019-04-23T11:45:50.716Z,7.40
2019-04-23T11:55:39.177Z,8.00
2019-04-23T11:58:35.977Z,8.87
2019-04-23T12:02:12.192Z,8.87
2019-04-23T12:06:07.503Z,9.00
2019-04-23T12:09:08.035Z,12.10
2019-04-23T12:12:28.028Z,8.47
2019-04-23T12:20:33.480Z,10.00
2019-04-23T12:27:01.972Z,8.95
2019-04-23T12:30:16.424Z,9.23
2019-04-23T12:33:36.166Z,7.80
2019-04-23T12:36:46.706Z,7.60
2019-04-23T12:46:41.707Z,6.67
2019-04-23T12:56:42.209Z,9.63
2019-04-23T12:59:44.708Z,9.63
2019-04-23T13:03:06.232Z,7.30
2019-04-23T13:06:08.091Z,9.97
2019-04-23T13:16:40.535Z,13.80
2019-04-23T13:19:39.733Z,10.50
2019-04-23T13:22:47.627Z,10.87
2019-04-23T13:25:57.123Z,11.40
2019-04-23T13:29:28.690Z,10.60
2019-04-23T13:32:43.371Z,10.27
2019-04-23T13:39:02.365Z,12.70
2019-04-23T13:42:33.759Z,12.60
2019-04-23T13:48:46.931Z,10.00
2019-04-23T13:52:26.337Z,12.57
2019-04-23T14:02:12.637Z,9.85
2019-04-23T14:05:33.015Z,11.70
2019-04-23T14:08:53.897Z,9.93
2019-04-23T14:11:58.580Z,10.47
2019-04-23T14:15:34.400Z,13.37
2019-04-23T14:18:52.160Z,13.20
2019-04-23T14:21:53.903Z,9.07
2019-04-23T14:25:10.094Z,11.80
2019-04-23T14:28:34.338Z,11.57
2019-04-23T14:31:43.405Z,10.40
2019-04-23T14:41:26.121Z,11.17
2019-04-23T14:45:00.675Z,9.77
2019-04-23T14:51:32.273Z,9.97
2019-04-23T14:55:25.997Z,10.73
2019-04-23T14:58:10.481Z,8.80
2019-04-23T15:01:27.377Z,10.13
2019-04-23T15:07:52.144Z,12.70
2019-04-23T15:11:20.979Z,8.77
2019-04-23T15:14:28.445Z,16.67
2019-04-23T15:21:19.195Z,15.20
2019-04-23T15:28:03.422Z,11.60
2019-04-23T15:30:48.016Z,10.30
2019-04-23T15:34:07.541Z,10.00
2019-04-23T15:37:32.894Z,9.53
2019-04-23T15:40:36.719Z,16.17
2019-04-23T15:43:57.131Z,11.63
2019-04-23T15:47:12.523Z,10.50
2019-04-23T15:50:22.669Z,9.83
2019-04-23T15:53:31.131Z,12.63
2019-04-23T15:56:57.361Z,11.70
2019-04-23T16:00:11.864Z,11.13
2019-04-23T16:02:54.689Z,9.67
2019-04-23T16:06:10.836Z,11.03
2019-04-23T16:09:59.622Z,8.77
2019-04-23T16:13:12.435Z,11.40
2019-04-23T16:16:31.595Z,15.20
2019-04-23T16:19:52.818Z,31.47
2019-04-23T16:22:55.356Z,17.20
2019-04-23T16:26:24.091Z,14.67
2019-04-23T16:29:46.064Z,14.03
2019-04-23T16:33:03.730Z,10.80
2019-04-23T16:36:12.652Z,10.03
2019-04-23T16:39:22.090Z,12.90
2019-04-23T16:42:47.804Z,10.70
2019-04-23T16:46:07.268Z,11.60
2019-04-23T16:49:17.877Z,9.70
2019-04-23T16:52:26.418Z,12.80
2019-04-23T16:55:50.042Z,7.17
2019-04-23T17:02:19.626Z,10.50
2019-04-23T17:12:10.850Z,10.30
2019-04-23T17:15:27.409Z,9.67
2019-04-23T17:18:41.450Z,11.33
2019-04-23T17:25:15.717Z,9.03
2019-04-23T17:28:27.771Z,6.27
2019-04-23T17:38:33.683Z,10.17
2019-04-23T17:48:49.430Z,9.30
2019-04-23T17:52:14.411Z,10.33
2019-04-23T17:55:21.900Z,8.87
2019-04-23T18:02:18.264Z,10.43
2019-04-23T18:05:14.686Z,14.77
2019-04-23T18:08:27.137Z,11.80
2019-04-23T18:11:35.716Z,18.23
2019-04-23T18:14:52.201Z,10.57
2019-04-23T18:18:13.633Z,11.23
2019-04-23T18:25:08.229Z,13.60
2019-04-23T18:28:26.059Z,13.10
2019-04-23T18:31:56.964Z,15.50
2019-04-23T18:35:15.303Z,28.20
2019-04-23T18:38:24.842Z,53.23
2019-04-23T18:41:35.207Z,48.30
2019-04-23T18:48:38.841Z,18.63
2019-04-23T18:51:42.724Z,45.30
2019-04-23T18:54:55.673Z,47.47
2019-04-23T18:58:13.375Z,16.70
2019-04-23T19:01:36.746Z,13.30
2019-04-23T19:05:08.536Z,13.23
2019-04-23T19:08:32.157Z,12.10
2019-04-23T19:15:09.252Z,19.63
2019-04-23T19:18:22.322Z,18.93
2019-04-23T19:24:45.143Z,11.17
2019-04-23T19:28:13.332Z,10.07
2019-04-23T19:31:53.280Z,18.77
2019-04-23T19:34:52.993Z,18.77
2019-04-23T19:38:13.420Z,18.90
2019-04-23T19:41:37.338Z,20.80
2019-04-23T19:44:43.852Z,17.43
2019-04-23T19:48:07.081Z,32.17
2019-04-23T19:51:17.257Z,15.33
2019-04-23T19:54:42.684Z,16.03
2019-04-23T20:04:18.238Z,16.07
2019-04-23T20:07:42.730Z,11.47
2019-04-23T20:10:50.145Z,14.97
2019-04-23T20:14:02.049Z,15.53
2019-04-23T20:20:42.692Z,23.07
2019-04-23T20:27:15.508Z,19.20
2019-04-23T20:31:16.410Z,26.40
2019-04-23T20:37:44.584Z,17.17
2019-04-23T20:40:51.561Z,46.20
2019-04-23T20:44:03.297Z,15.83
2019-04-23T20:50:33.778Z,17.63
2019-04-23T20:54:00.235Z,16.40
2019-04-23T20:57:41.420Z,19.10
2019-04-23T21:01:00.341Z,18.47
2019-04-23T21:04:28.175Z,23.77
2019-04-23T21:07:42.461Z,18.17
2019-04-23T21:10:53.722Z,23.40
2019-04-23T21:16:56.048Z,18.57
2019-04-23T21:23:38.389Z,18.87
2019-04-23T21:26:52.783Z,21.37
2019-04-23T21:33:15.736Z,18.07
2019-04-23T21:36:53.643Z,22.13
2019-04-23T21:40:48.916Z,15.30
2019-04-23T21:44:05.474Z,18.90
2019-04-23T21:46:58.818Z,17.27
2019-04-23T21:50:19.176Z,19.67
2019-04-23T21:53:33.984Z,16.27
2019-04-23T21:56:44.502Z,16.53
2019-04-23T21:59:59.417Z,18.70
2019-04-23T22:03:17.926Z,11.87
2019-04-23T22:13:10.923Z,17.07
2019-04-23T22:19:26.796Z,16.27
2019-04-23T22:26:14.623Z,11.70
2019-04-23T22:36:04.602Z,13.83
2019-04-23T22:39:10.142Z,18.40
2019-04-23T22:42:41.196Z,17.37
2019-04-23T22:45:43.082Z,13.30
2019-04-23T22:49:17.976Z,10.53
2019-04-23T22:52:21.626Z,15.20
2019-04-23T22:55:40.437Z,14.70
2019-04-23T22:59:01.489Z,14.30
2019-04-23T23:02:25.509Z,15.50
2019-04-23T23:09:20.958Z,13.90
2019-04-23T23:12:19.661Z,10.23
2019-04-23T23:15:42.026Z,11.93
2019-04-23T23:18:59.880Z,13.20
2019-04-23T23:22:10.226Z,14.90
2019-04-23T23:32:00.225Z,13.00
2019-04-23T23:41:44.031Z,10.37
2019-04-23T23:45:03.516Z,13.17
2019-04-23T23:48:16.252Z,12.43
2019-04-23T23:51:29.453Z,12.83
2019-04-23T23:54:43.857Z,14.13
2019-04-23T23:58:10.956Z,16.13
